Meath Environmental Platform

Observations for Trim Market St

Time AQI Temp °C Hum % Pres Pa CO μg/m³ H₂S μg/m³ NO μg/m³ NO₂ μg/m³ O₃ μg/m³ SO₂ μg/m³ PM1 μg/m³ PM2.5 μg/m³ PM10 μg/m³
Saturday 11 July 2026
13:32 1 39.4 28 66,882 0 0 0 0 9.27 5.63 2.14 5.05 5.55
13:29 1 39.7 28 66,918 0 0 0 0.92 28.9 5.05 1.43 4.5 5.77
13:28 1 39.7 28 66,922 0 0 0 8.42 22.98 4.45 2.85 6.69 7.52
13:26 1 39.6 28 66,888 0 0 0 5.26 25.62 3.88 2.14 6.14 6.76
13:19 1 39.3 28 66,886 0 0 0 0 9.81 5.23 1.43 5.03 5.54
13:16 1 39.1 28 66,863 0 2.72 0 6.22 37.47 4.21 1.43 4.48 4.93
13:13 1 38.9 28 66,829 0 0 0 0 19.77 4.81 2.14 5.58 6.14
13:11 1 39 28 66,873 0 0 0 0 28.53 5.83 2.14 6.13 6.65
13:10 1 39 28 66,876 0 0 0 3.82 36.36 4.71 0.71 4.51 4.96
13:09 1 39.2 27 66,874 0 4.96 0 3.7 33.7 5.8 0.71 3.97 4
13:08 1 39.4 27 66,908 0 0 0 2.38 40.99 5.27 2.14 5.08 5.59
13:07 1 39.6 27 66,920 0 0 0 0 36.42 4.41 1.43 5.09 5.6
13:06 1 39.8 27 66,935 0 0 0 0 15.19 6.08 2.85 6.73 7.52
13:05 1 40 27 66,955 0 0 0 0 18.09 5.53 0.71 4.54 4.99
13:04 1 40 27 66,947 0 0 0 0 7.21 5.98 2.14 6.72 7.52
13:03 1 40.1 27 66,955 0 0 0 0 22.77 4.87 1.43 4.53 4.98
13:02 1 40.1 27 66,961 0 0 0 4.68 10.11 3.21 2.85 5.62 6.19
13:01 1 40.1 27 66,973 0 0 0 0 22.3 5.24 1.43 5.07 5.57
13:00 1 40.1 27 66,951 0 0 0 1.95 25.56 4.48 0.71 4.52 4.97
12:59 1 40 27 66,961 0 0 0 0 22.1 4.39 1.43 4.52 4.97